ITY968 LIBD-LIME
Flight info
| Callsign | ITY968 |
|---|---|
| Flight time | 1h 10m |
| Altitude | 38000 |
| Route | PISIP DCT VIE DCT INKIM DCT PIDEP DCT PELEG DCT LUTOR DCT BOA DCT OGPUD DCT BETMU DCT OSBUL |
| Aircraft | A20N/M-SDE2E3FGHIRWXY/LB1 |
Departure
| Time | 2026-05-08 14:31 |
|---|---|
| Airport | Bari Karol Wojtyła International Airport (LIBD) |
Arrival
| Time | 2026-05-08 15:41 |
|---|---|
| Airport | Il Caravaggio International Airport (LIME) |
| Time | Latitude | Longitude | Altitude | Speed | Heading |
|---|---|---|---|---|---|
| 2026-05-08 14:10 | 41.13744 | 16.76974 | 133 ft | 0 kts | 194° |
| 2026-05-08 14:18 | 41.13752 | 16.76977 | 132 ft | 2 kts | 194° |
| 2026-05-08 14:19 | 41.13767 | 16.76981 | 132 ft | 2 kts | 204° |
| 2026-05-08 14:19 | 41.13780 | 16.76993 | 125 ft | 2 kts | 238° |
| 2026-05-08 14:19 | 41.13784 | 16.77002 | 125 ft | 0 kts | 254° |
| 2026-05-08 14:21 | 41.13784 | 16.77001 | 125 ft | 1 kts | 254° |
| 2026-05-08 14:22 | 41.13779 | 16.76974 | 127 ft | 5 kts | 256° |
| 2026-05-08 14:22 | 41.13769 | 16.76921 | 132 ft | 7 kts | 255° |
| 2026-05-08 14:22 | 41.13767 | 16.76854 | 132 ft | 9 kts | 280° |
| 2026-05-08 14:22 | 41.13806 | 16.76785 | 128 ft | 10 kts | 314° |
| 2026-05-08 14:23 | 41.13839 | 16.76694 | 129 ft | 11 kts | 266° |
| 2026-05-08 14:23 | 41.13813 | 16.76612 | 134 ft | 9 kts | 243° |
| 2026-05-08 14:23 | 41.13789 | 16.76527 | 135 ft | 11 kts | 251° |
| 2026-05-08 14:23 | 41.13759 | 16.76420 | 135 ft | 13 kts | 249° |
| 2026-05-08 14:24 | 41.13731 | 16.76300 | 135 ft | 15 kts | 252° |
| 2026-05-08 14:24 | 41.13699 | 16.76168 | 136 ft | 15 kts | 252° |
| 2026-05-08 14:24 | 41.13664 | 16.76026 | 136 ft | 17 kts | 252° |
| 2026-05-08 14:24 | 41.13623 | 16.75894 | 136 ft | 14 kts | 242° |
| 2026-05-08 14:25 | 41.13604 | 16.75783 | 139 ft | 12 kts | 255° |
| 2026-05-08 14:25 | 41.13583 | 16.75679 | 139 ft | 12 kts | 249° |
| 2026-05-08 14:25 | 41.13545 | 16.75577 | 139 ft | 13 kts | 244° |
| 2026-05-08 14:25 | 41.13510 | 16.75480 | 142 ft | 11 kts | 244° |
| 2026-05-08 14:26 | 41.13476 | 16.75387 | 142 ft | 12 kts | 243° |
| 2026-05-08 14:26 | 41.13437 | 16.75290 | 142 ft | 12 kts | 242° |
| 2026-05-08 14:26 | 41.13426 | 16.75204 | 143 ft | 9 kts | 295° |
| 2026-05-08 14:26 | 41.13427 | 16.75131 | 144 ft | 7 kts | 262° |
| 2026-05-08 14:27 | 41.13422 | 16.75105 | 145 ft | 0 kts | 253° |
| 2026-05-08 14:27 | 41.13422 | 16.75103 | 145 ft | 3 kts | 253° |
| 2026-05-08 14:27 | 41.13392 | 16.75041 | 147 ft | 11 kts | 238° |
| 2026-05-08 14:27 | 41.13336 | 16.74881 | 147 ft | 23 kts | 247° |
| 2026-05-08 14:28 | 41.13274 | 16.74687 | 152 ft | 21 kts | 248° |
| 2026-05-08 14:28 | 41.13222 | 16.74510 | 152 ft | 20 kts | 250° |
| 2026-05-08 14:28 | 41.13180 | 16.74352 | 153 ft | 17 kts | 249° |
| 2026-05-08 14:28 | 41.13183 | 16.74208 | 150 ft | 13 kts | 297° |
| 2026-05-08 14:29 | 41.13235 | 16.74071 | 145 ft | 20 kts | 296° |
| 2026-05-08 14:29 | 41.13274 | 16.74032 | 146 ft | 4 kts | 28° |
| 2026-05-08 14:29 | 41.13292 | 16.74055 | 146 ft | 0 kts | 68° |
| 2026-05-08 14:30 | 41.13301 | 16.74086 | 146 ft | 14 kts | 68° |
| 2026-05-08 14:30 | 41.13414 | 16.74511 | 146 ft | 83 kts | 69° |
| 2026-05-08 14:30 | 41.13697 | 16.75472 | 158 ft | 136 kts | 67° |
| 2026-05-08 14:30 | 41.14054 | 16.76635 | 735 ft | 133 kts | 66° |
| 2026-05-08 14:31 | 41.14413 | 16.77740 | 1410 ft | 130 kts | 67° |
| 2026-05-08 14:31 | 41.14784 | 16.78848 | 1998 ft | 133 kts | 67° |
| 2026-05-08 14:31 | 41.15146 | 16.80007 | 2605 ft | 138 kts | 69° |
| 2026-05-08 14:32 | 41.15844 | 16.82500 | 3987 ft | 156 kts | 70° |
| 2026-05-08 14:32 | 41.16228 | 16.83941 | 4611 ft | 175 kts | 70° |
| 2026-05-08 14:32 | 41.16646 | 16.85525 | 5208 ft | 194 kts | 70° |
| 2026-05-08 14:32 | 41.17117 | 16.87309 | 5763 ft | 214 kts | 70° |
| 2026-05-08 14:33 | 41.17645 | 16.89273 | 6328 ft | 237 kts | 67° |
| 2026-05-08 14:33 | 41.18203 | 16.90556 | 6715 ft | 249 kts | 50° |
| 2026-05-08 14:33 | 41.19599 | 16.91962 | 7612 ft | 257 kts | 24° |
| 2026-05-08 14:33 | 41.21366 | 16.92387 | 8604 ft | 264 kts | 356° |
| 2026-05-08 14:34 | 41.23193 | 16.91866 | 9531 ft | 275 kts | 344° |
| 2026-05-08 14:34 | 41.25080 | 16.91160 | 10340 ft | 287 kts | 342° |
| 2026-05-08 14:34 | 41.27075 | 16.90398 | 10819 ft | 311 kts | 342° |
| 2026-05-08 14:34 | 41.29237 | 16.89582 | 11263 ft | 334 kts | 343° |
| 2026-05-08 14:35 | 41.31491 | 16.88746 | 12047 ft | 343 kts | 343° |
| 2026-05-08 14:35 | 41.33813 | 16.87894 | 12937 ft | 349 kts | 343° |
| 2026-05-08 14:35 | 41.36154 | 16.86944 | 13796 ft | 354 kts | 336° |
| 2026-05-08 14:35 | 41.38316 | 16.85365 | 14606 ft | 356 kts | 322° |
| 2026-05-08 14:36 | 41.40155 | 16.83139 | 15427 ft | 358 kts | 310° |
| 2026-05-08 14:36 | 41.41804 | 16.80630 | 16235 ft | 362 kts | 309° |
| 2026-05-08 14:36 | 41.43484 | 16.78086 | 17046 ft | 367 kts | 310° |
| 2026-05-08 14:36 | 41.45183 | 16.75519 | 17707 ft | 372 kts | 310° |
| 2026-05-08 14:37 | 41.46898 | 16.72929 | 17934 ft | 374 kts | 310° |
| 2026-05-08 14:37 | 41.48605 | 16.70352 | 17992 ft | 374 kts | 310° |
| 2026-05-08 14:37 | 41.50328 | 16.67747 | 17996 ft | 374 kts | 310° |
| 2026-05-08 14:37 | 41.52056 | 16.65131 | 17999 ft | 375 kts | 310° |
| 2026-05-08 14:38 | 41.53777 | 16.62523 | 17993 ft | 375 kts | 310° |
| 2026-05-08 14:38 | 41.55505 | 16.59895 | 18083 ft | 378 kts | 310° |
| 2026-05-08 14:38 | 41.57246 | 16.57240 | 18721 ft | 380 kts | 310° |
| 2026-05-08 14:38 | 41.58989 | 16.54582 | 19562 ft | 380 kts | 309° |
| 2026-05-08 14:39 | 41.60740 | 16.51910 | 20275 ft | 384 kts | 309° |
| 2026-05-08 14:39 | 41.62505 | 16.49215 | 20984 ft | 387 kts | 309° |
| 2026-05-08 14:39 | 41.64260 | 16.46532 | 21681 ft | 390 kts | 309° |
| 2026-05-08 14:39 | 41.66057 | 16.43782 | 22380 ft | 393 kts | 309° |
| 2026-05-08 14:40 | 41.67864 | 16.41015 | 23080 ft | 396 kts | 309° |
| 2026-05-08 14:40 | 41.69686 | 16.38224 | 23727 ft | 400 kts | 309° |
| 2026-05-08 14:40 | 41.71527 | 16.35400 | 24285 ft | 403 kts | 309° |
| 2026-05-08 14:40 | 41.73376 | 16.32562 | 24844 ft | 406 kts | 309° |
| 2026-05-08 14:41 | 41.75239 | 16.29698 | 25391 ft | 409 kts | 309° |
| 2026-05-08 14:41 | 41.77119 | 16.26805 | 25926 ft | 412 kts | 309° |
| 2026-05-08 14:41 | 41.78982 | 16.23937 | 26453 ft | 415 kts | 309° |
| 2026-05-08 14:41 | 41.80884 | 16.21006 | 26965 ft | 418 kts | 309° |
| 2026-05-08 14:42 | 41.82798 | 16.18053 | 27473 ft | 421 kts | 309° |
| 2026-05-08 14:42 | 41.84731 | 16.15067 | 27963 ft | 423 kts | 309° |
| 2026-05-08 14:42 | 41.86672 | 16.12066 | 28418 ft | 427 kts | 309° |
| 2026-05-08 14:42 | 41.88624 | 16.09045 | 28870 ft | 430 kts | 309° |
| 2026-05-08 14:43 | 41.90588 | 16.05993 | 29316 ft | 432 kts | 307° |
| 2026-05-08 14:43 | 41.92370 | 16.02791 | 29740 ft | 433 kts | 302° |
| 2026-05-08 14:43 | 41.94055 | 15.99413 | 30167 ft | 436 kts | 302° |
| 2026-05-08 14:43 | 41.95759 | 15.96031 | 30545 ft | 438 kts | 302° |
| 2026-05-08 14:44 | 41.97474 | 15.92635 | 30946 ft | 440 kts | 302° |
| 2026-05-08 14:44 | 41.99200 | 15.89216 | 31379 ft | 441 kts | 302° |
| 2026-05-08 14:44 | 42.00918 | 15.85804 | 31908 ft | 439 kts | 302° |
| 2026-05-08 14:44 | 42.02626 | 15.82406 | 32432 ft | 437 kts | 302° |
| 2026-05-08 14:45 | 42.04325 | 15.79020 | 32985 ft | 435 kts | 302° |
| 2026-05-08 14:45 | 42.06012 | 15.75653 | 33493 ft | 433 kts | 302° |
| 2026-05-08 14:45 | 42.07687 | 15.72303 | 33988 ft | 431 kts | 301° |
| 2026-05-08 14:45 | 42.09354 | 15.68968 | 34427 ft | 429 kts | 301° |
| 2026-05-08 14:46 | 42.11016 | 15.65640 | 34863 ft | 426 kts | 301° |
| 2026-05-08 14:46 | 42.12663 | 15.62337 | 35276 ft | 424 kts | 301° |
| 2026-05-08 14:46 | 42.14283 | 15.59084 | 35672 ft | 422 kts | 301° |
| 2026-05-08 14:46 | 42.15912 | 15.55809 | 36054 ft | 420 kts | 301° |
| 2026-05-08 14:47 | 42.17539 | 15.52536 | 36433 ft | 418 kts | 301° |
| 2026-05-08 14:47 | 42.19151 | 15.49289 | 36799 ft | 417 kts | 301° |
| 2026-05-08 14:47 | 42.20765 | 15.46035 | 37163 ft | 415 kts | 301° |
| 2026-05-08 14:47 | 42.22373 | 15.42790 | 37520 ft | 413 kts | 301° |
| 2026-05-08 14:48 | 42.23962 | 15.39577 | 37855 ft | 412 kts | 301° |
| 2026-05-08 14:48 | 42.25551 | 15.36363 | 38015 ft | 411 kts | 301° |
| 2026-05-08 14:48 | 42.28715 | 15.29953 | 38026 ft | 409 kts | 300° |
| 2026-05-08 14:49 | 42.31866 | 15.23553 | 38027 ft | 409 kts | 300° |
| 2026-05-08 14:49 | 42.35016 | 15.17145 | 38026 ft | 409 kts | 300° |
| 2026-05-08 14:50 | 42.38160 | 15.10733 | 38026 ft | 409 kts | 300° |
| 2026-05-08 14:50 | 42.41288 | 15.04341 | 38026 ft | 409 kts | 300° |
| 2026-05-08 14:51 | 42.44435 | 14.97897 | 38026 ft | 410 kts | 300° |
| 2026-05-08 14:51 | 42.47577 | 14.91450 | 38019 ft | 410 kts | 300° |
| 2026-05-08 14:52 | 42.52263 | 14.81809 | 38019 ft | 410 kts | 300° |
| 2026-05-08 14:53 | 42.55391 | 14.75355 | 38021 ft | 409 kts | 300° |
| 2026-05-08 14:53 | 42.58520 | 14.68885 | 38022 ft | 410 kts | 300° |
| 2026-05-08 14:54 | 42.61641 | 14.62417 | 38028 ft | 409 kts | 300° |
| 2026-05-08 14:54 | 42.64757 | 14.55945 | 38026 ft | 409 kts | 300° |
| 2026-05-08 14:55 | 42.67870 | 14.49467 | 38022 ft | 409 kts | 300° |
| 2026-05-08 14:55 | 42.70982 | 14.42976 | 38023 ft | 410 kts | 300° |
| 2026-05-08 14:56 | 42.74095 | 14.36468 | 38030 ft | 410 kts | 300° |
| 2026-05-08 14:56 | 42.77209 | 14.29944 | 38013 ft | 411 kts | 300° |
| 2026-05-08 14:57 | 42.80295 | 14.23465 | 38022 ft | 411 kts | 300° |
| 2026-05-08 14:57 | 42.83414 | 14.16906 | 38022 ft | 411 kts | 300° |
| 2026-05-08 14:58 | 42.86656 | 14.10481 | 38024 ft | 412 kts | 302° |
| 2026-05-08 14:58 | 42.89994 | 14.04164 | 38020 ft | 412 kts | 302° |
| 2026-05-08 14:59 | 42.93322 | 13.97786 | 38020 ft | 412 kts | 302° |
| 2026-05-08 14:59 | 42.98285 | 13.88187 | 38021 ft | 413 kts | 302° |
| 2026-05-08 15:00 | 43.01593 | 13.81768 | 38023 ft | 413 kts | 302° |
| 2026-05-08 15:00 | 43.04876 | 13.75384 | 38025 ft | 413 kts | 302° |
| 2026-05-08 15:01 | 43.08184 | 13.68937 | 38019 ft | 414 kts | 302° |
| 2026-05-08 15:01 | 43.11481 | 13.62499 | 38022 ft | 414 kts | 302° |
| 2026-05-08 15:02 | 43.14782 | 13.56039 | 38024 ft | 414 kts | 301° |
| 2026-05-08 15:02 | 43.18082 | 13.49566 | 38015 ft | 414 kts | 301° |
| 2026-05-08 15:03 | 43.21380 | 13.43084 | 38019 ft | 414 kts | 301° |
| 2026-05-08 15:03 | 43.24648 | 13.36646 | 38027 ft | 414 kts | 301° |
| 2026-05-08 15:04 | 43.27939 | 13.30147 | 38019 ft | 414 kts | 301° |
| 2026-05-08 15:04 | 43.31229 | 13.23638 | 38021 ft | 414 kts | 301° |
| 2026-05-08 15:05 | 43.34514 | 13.17125 | 38024 ft | 413 kts | 301° |
| 2026-05-08 15:05 | 43.37768 | 13.10658 | 38026 ft | 414 kts | 301° |
| 2026-05-08 15:06 | 43.41045 | 13.04131 | 38025 ft | 414 kts | 301° |
| 2026-05-08 15:06 | 43.44319 | 12.97594 | 38022 ft | 415 kts | 301° |
| 2026-05-08 15:07 | 43.47590 | 12.91052 | 38022 ft | 415 kts | 301° |
| 2026-05-08 15:07 | 43.50855 | 12.84506 | 38020 ft | 414 kts | 301° |
| 2026-05-08 15:08 | 43.53563 | 12.79064 | 38023 ft | 414 kts | 301° |
| 2026-05-08 15:08 | 43.57344 | 12.71449 | 38029 ft | 414 kts | 301° |
| 2026-05-08 15:09 | 43.60593 | 12.64892 | 38030 ft | 414 kts | 301° |
| 2026-05-08 15:09 | 43.63838 | 12.58328 | 38034 ft | 414 kts | 301° |
| 2026-05-08 15:10 | 43.67403 | 12.52134 | 38040 ft | 417 kts | 307° |
| 2026-05-08 15:10 | 43.71207 | 12.46082 | 38041 ft | 417 kts | 307° |
| 2026-05-08 15:11 | 43.75047 | 12.40055 | 38047 ft | 418 kts | 307° |
| 2026-05-08 15:11 | 43.78906 | 12.34033 | 38048 ft | 418 kts | 307° |
| 2026-05-08 15:12 | 43.82740 | 12.28044 | 38053 ft | 418 kts | 307° |
| 2026-05-08 15:12 | 43.86586 | 12.22020 | 38052 ft | 418 kts | 307° |
| 2026-05-08 15:13 | 43.90437 | 12.15976 | 38051 ft | 419 kts | 307° |
| 2026-05-08 15:13 | 43.94265 | 12.09956 | 38040 ft | 419 kts | 307° |
| 2026-05-08 15:14 | 43.98114 | 12.03889 | 38041 ft | 419 kts | 307° |
| 2026-05-08 15:14 | 44.01963 | 11.97810 | 38049 ft | 419 kts | 307° |
| 2026-05-08 15:15 | 44.05809 | 11.91723 | 38049 ft | 419 kts | 307° |
| 2026-05-08 15:15 | 44.09658 | 11.85617 | 38059 ft | 420 kts | 307° |
| 2026-05-08 15:16 | 44.13490 | 11.79528 | 37658 ft | 416 kts | 307° |
| 2026-05-08 15:16 | 44.15388 | 11.76506 | 37045 ft | 415 kts | 307° |
| 2026-05-08 15:16 | 44.17263 | 11.73516 | 36354 ft | 415 kts | 307° |
| 2026-05-08 15:17 | 44.19165 | 11.70482 | 35649 ft | 416 kts | 307° |
| 2026-05-08 15:17 | 44.21069 | 11.67439 | 34935 ft | 416 kts | 307° |
| 2026-05-08 15:17 | 44.22972 | 11.64396 | 34251 ft | 417 kts | 307° |
| 2026-05-08 15:17 | 44.24870 | 11.61356 | 33436 ft | 418 kts | 307° |
| 2026-05-08 15:18 | 44.26801 | 11.58258 | 32231 ft | 427 kts | 307° |
| 2026-05-08 15:18 | 44.28782 | 11.55072 | 30903 ft | 441 kts | 307° |
| 2026-05-08 15:18 | 44.30819 | 11.51796 | 29638 ft | 452 kts | 307° |
| 2026-05-08 15:18 | 44.32880 | 11.48486 | 28827 ft | 450 kts | 307° |
| 2026-05-08 15:19 | 44.34887 | 11.45266 | 28404 ft | 439 kts | 307° |
| 2026-05-08 15:19 | 44.36860 | 11.42095 | 28175 ft | 430 kts | 307° |
| 2026-05-08 15:19 | 44.38817 | 11.38937 | 28064 ft | 435 kts | 307° |
| 2026-05-08 15:19 | 44.40801 | 11.35728 | 28028 ft | 436 kts | 307° |
| 2026-05-08 15:20 | 44.44765 | 11.29314 | 28019 ft | 436 kts | 307° |
| 2026-05-08 15:20 | 44.48720 | 11.22900 | 28022 ft | 435 kts | 307° |
| 2026-05-08 15:21 | 44.52666 | 11.16487 | 28025 ft | 434 kts | 307° |
| 2026-05-08 15:21 | 44.56604 | 11.10072 | 28042 ft | 434 kts | 307° |
| 2026-05-08 15:22 | 44.60406 | 11.03591 | 28059 ft | 431 kts | 301° |
| 2026-05-08 15:22 | 44.63244 | 10.96282 | 28078 ft | 424 kts | 288° |
| 2026-05-08 15:23 | 44.65431 | 10.88615 | 28095 ft | 423 kts | 288° |
| 2026-05-08 15:23 | 44.67636 | 10.80973 | 27869 ft | 419 kts | 288° |
| 2026-05-08 15:24 | 44.68705 | 10.77240 | 27353 ft | 417 kts | 288° |
| 2026-05-08 15:24 | 44.69780 | 10.73465 | 26705 ft | 415 kts | 289° |
| 2026-05-08 15:24 | 44.70843 | 10.69725 | 26069 ft | 410 kts | 289° |
| 2026-05-08 15:24 | 44.71893 | 10.66021 | 25448 ft | 406 kts | 289° |
| 2026-05-08 15:25 | 44.72933 | 10.62349 | 24836 ft | 402 kts | 289° |
| 2026-05-08 15:25 | 44.73960 | 10.58716 | 24241 ft | 397 kts | 289° |
| 2026-05-08 15:25 | 44.74974 | 10.55128 | 23654 ft | 393 kts | 289° |
| 2026-05-08 15:25 | 44.75978 | 10.51567 | 22973 ft | 389 kts | 289° |
| 2026-05-08 15:26 | 44.76972 | 10.48039 | 22294 ft | 386 kts | 289° |
| 2026-05-08 15:26 | 44.78128 | 10.44647 | 21633 ft | 385 kts | 300° |
| 2026-05-08 15:26 | 44.79851 | 10.41761 | 20989 ft | 388 kts | 317° |
| 2026-05-08 15:26 | 44.82103 | 10.39674 | 20372 ft | 389 kts | 332° |
| 2026-05-08 15:27 | 44.84520 | 10.38095 | 19765 ft | 387 kts | 334° |
| 2026-05-08 15:27 | 44.86964 | 10.36558 | 19160 ft | 384 kts | 335° |
| 2026-05-08 15:27 | 44.89397 | 10.35039 | 18577 ft | 381 kts | 335° |
| 2026-05-08 15:27 | 44.91805 | 10.33529 | 17950 ft | 378 kts | 335° |
| 2026-05-08 15:28 | 44.94198 | 10.32021 | 17287 ft | 375 kts | 335° |
| 2026-05-08 15:28 | 44.96564 | 10.30526 | 16639 ft | 372 kts | 335° |
| 2026-05-08 15:28 | 44.98920 | 10.29033 | 16005 ft | 369 kts | 335° |
| 2026-05-08 15:28 | 45.01252 | 10.27553 | 15399 ft | 367 kts | 335° |
| 2026-05-08 15:29 | 45.03575 | 10.26076 | 14783 ft | 365 kts | 335° |
| 2026-05-08 15:29 | 45.05889 | 10.24604 | 14178 ft | 363 kts | 335° |
| 2026-05-08 15:29 | 45.08184 | 10.23142 | 13547 ft | 361 kts | 335° |
| 2026-05-08 15:29 | 45.10464 | 10.21687 | 12901 ft | 358 kts | 335° |
| 2026-05-08 15:30 | 45.12729 | 10.20241 | 12255 ft | 357 kts | 335° |
| 2026-05-08 15:30 | 45.14954 | 10.18819 | 11630 ft | 355 kts | 335° |
| 2026-05-08 15:30 | 45.17202 | 10.17381 | 11007 ft | 354 kts | 335° |
| 2026-05-08 15:30 | 45.19438 | 10.15949 | 10394 ft | 352 kts | 336° |
| 2026-05-08 15:31 | 45.21669 | 10.14521 | 9784 ft | 351 kts | 336° |
| 2026-05-08 15:31 | 45.23897 | 10.13096 | 9121 ft | 350 kts | 336° |
| 2026-05-08 15:31 | 45.26112 | 10.11679 | 8478 ft | 349 kts | 336° |
| 2026-05-08 15:31 | 45.28294 | 10.10281 | 7832 ft | 339 kts | 336° |
| 2026-05-08 15:32 | 45.30412 | 10.08919 | 7213 ft | 329 kts | 336° |
| 2026-05-08 15:32 | 45.32440 | 10.07615 | 6621 ft | 321 kts | 336° |
| 2026-05-08 15:32 | 45.34430 | 10.06335 | 6203 ft | 307 kts | 336° |
| 2026-05-08 15:32 | 45.36283 | 10.05143 | 6026 ft | 286 kts | 336° |
| 2026-05-08 15:33 | 45.38014 | 10.04029 | 5976 ft | 263 kts | 336° |
| 2026-05-08 15:33 | 45.39607 | 10.03003 | 5967 ft | 240 kts | 336° |
| 2026-05-08 15:33 | 45.41067 | 10.02063 | 5970 ft | 225 kts | 336° |
| 2026-05-08 15:33 | 45.42463 | 10.01165 | 5989 ft | 225 kts | 336° |
| 2026-05-08 15:34 | 45.43946 | 10.00209 | 5977 ft | 235 kts | 336° |
| 2026-05-08 15:34 | 45.45426 | 9.99253 | 5986 ft | 233 kts | 336° |
| 2026-05-08 15:34 | 45.46903 | 9.98300 | 5984 ft | 233 kts | 336° |
| 2026-05-08 15:34 | 45.48381 | 9.97341 | 5982 ft | 234 kts | 336° |
| 2026-05-08 15:35 | 45.49371 | 9.96727 | 5974 ft | 234 kts | 341° |
| 2026-05-08 15:35 | 45.50963 | 9.96260 | 5763 ft | 235 kts | 358° |
| 2026-05-08 15:35 | 45.52614 | 9.96206 | 5350 ft | 241 kts | 359° |
| 2026-05-08 15:35 | 45.54870 | 9.96128 | 4800 ft | 248 kts | 359° |
| 2026-05-08 15:36 | 45.56597 | 9.96056 | 4373 ft | 248 kts | 359° |
| 2026-05-08 15:36 | 45.57766 | 9.96005 | 4108 ft | 248 kts | 358° |
| 2026-05-08 15:36 | 45.59479 | 9.95923 | 3703 ft | 245 kts | 358° |
| 2026-05-08 15:36 | 45.61090 | 9.95355 | 3507 ft | 237 kts | 329° |
| 2026-05-08 15:37 | 45.62208 | 9.93775 | 3410 ft | 225 kts | 302° |
| 2026-05-08 15:37 | 45.62831 | 9.91878 | 3394 ft | 197 kts | 289° |
| 2026-05-08 15:37 | 45.63203 | 9.90149 | 3331 ft | 170 kts | 285° |
| 2026-05-08 15:37 | 45.63488 | 9.88572 | 3091 ft | 157 kts | 284° |
| 2026-05-08 15:38 | 45.63755 | 9.87122 | 2903 ft | 144 kts | 284° |
| 2026-05-08 15:38 | 45.63998 | 9.85800 | 2713 ft | 132 kts | 284° |
| 2026-05-08 15:38 | 45.64231 | 9.84531 | 2538 ft | 133 kts | 284° |
| 2026-05-08 15:38 | 45.64464 | 9.83264 | 2363 ft | 131 kts | 284° |
| 2026-05-08 15:39 | 45.64696 | 9.82004 | 2189 ft | 131 kts | 284° |
| 2026-05-08 15:39 | 45.64925 | 9.80762 | 2016 ft | 131 kts | 284° |
| 2026-05-08 15:39 | 45.65159 | 9.79490 | 1830 ft | 131 kts | 284° |
| 2026-05-08 15:39 | 45.65387 | 9.78257 | 1657 ft | 129 kts | 284° |
| 2026-05-08 15:40 | 45.65615 | 9.77014 | 1480 ft | 130 kts | 284° |
| 2026-05-08 15:40 | 45.65842 | 9.75775 | 1311 ft | 128 kts | 283° |
| 2026-05-08 15:40 | 45.66065 | 9.74545 | 1117 ft | 128 kts | 283° |
| 2026-05-08 15:40 | 45.66287 | 9.73331 | 960 ft | 127 kts | 284° |
| 2026-05-08 15:41 | 45.66522 | 9.72115 | 817 ft | 126 kts | 283° |
| 2026-05-08 15:41 | 45.66715 | 9.71033 | 787 ft | 87 kts | 284° |
| 2026-05-08 15:41 | 45.66815 | 9.70484 | 787 ft | 31 kts | 286° |
| 2026-05-08 15:41 | 45.66874 | 9.70183 | 787 ft | 28 kts | 284° |
| 2026-05-08 15:42 | 45.66886 | 9.70047 | 787 ft | 14 kts | 275° |
| 2026-05-08 15:42 | 45.66870 | 9.69944 | 787 ft | 0 kts | 242° |
| 2026-05-08 15:43 | 45.66865 | 9.69931 | 787 ft | 5 kts | 240° |
| 2026-05-08 15:43 | 45.66830 | 9.69860 | 787 ft | 10 kts | 220° |
| 2026-05-08 15:43 | 45.66778 | 9.69867 | 787 ft | 8 kts | 134° |
| 2026-05-08 15:43 | 45.66756 | 9.69949 | 787 ft | 10 kts | 106° |
| 2026-05-08 15:44 | 45.66736 | 9.70047 | 787 ft | 12 kts | 106° |
| 2026-05-08 15:44 | 45.66708 | 9.70091 | 787 ft | 3 kts | 202° |
| 2026-05-08 15:44 | 45.66674 | 9.70073 | 787 ft | 6 kts | 198° |
| 2026-05-08 15:44 | 45.66639 | 9.70058 | 787 ft | 4 kts | 195° |
| 2026-05-08 15:45 | 45.66622 | 9.70051 | 787 ft | 0 kts | 197° |